Portada
METAR-TAF:

METAR-TAF

Aeroports :

Morganton, Carolina del Nord, Estats Units d'Amèrica

latitud: 35-49-17N, longitud: 081-36-39W, altitud: 387 m

Observació

L'informe es va fer fa 20 minuts, a les 23:35 UTC
Vent 4 kt del Oest
Temperatura 21°C
Humitat 88%
Pressió 1021 hPa
Visibilitat: 16.1 km
Cel clar

METAR: KMRN 072335Z AUTO 28004KT 10SM CLR 21/19 A3014 RMK AO2 T02100187

Hora: 19:55 (23:55 UTC)


TAF: manca

Observacions i pronòstics meteorològics de més de 4000 aeroports (METAR i TAF).

Les estacions disponibles són els punts grocs i vermells al mapa.

Posi el ratolí al punt desitjat per veure el nom de l'estació.

Feu clic per veure les observacions i els pronòstics meteorològics.

Per canviar el mapa: feu clic els botons verds amb una creu de color negre per apropar; al botó verd amb un guió per allunyar la imatge; o en les fletxes verdes per a mapes adjacents.


METAR-TAF: